Time;durP1;ratioP1;P1;durP2;ratioP2;P2;SDS_P1;SDS_P2;PMS_P1;PMS_P2;Temp;Humidity;BMP_temperature;BMP_pressure;BME280_temperature;BME280_humidity;BME280_pressure;Samples;Min_cycle;Max_cycle;Signal;HPM_P1;HPM_P2
2020/01/31 16:36:58;;;;;;;1;0.7;;;;;;;12.3;86.60742;957.7715;;;;
2020/01/31 16:39:49;;;;;;;1.3;1;;;;;;;12.23;86.96094;957.7396;;;;
2020/01/31 16:42:14;;;;;;;1;0.8;;;;;;;12.19;87.18359;957.7834;;;;
2020/01/31 16:44:39;;;;;;;1.1;1;;;;;;;12.22;87.04004;957.8434;;;;
2020/01/31 16:47:04;;;;;;;1.4;1.1;;;;;;;12.24;86.88184;957.8478;;;;
2020/01/31 16:49:29;;;;;;;1.7;1;;;;;;;12.18;87.00977;957.7924;;;;
2020/01/31 16:51:54;;;;;;;1.7;1.1;;;;;;;12.19;86.93066;957.7924;;;;
2020/01/31 16:54:19;;;;;;;2.1;1;;;;;;;12.1;87.43262;957.7654;;;;
2020/01/31 16:56:44;;;;;;;1.6;1;;;;;;;12.06;87.20605;957.7684;;;;
2020/01/31 16:59:10;;;;;;;2.8;1;;;;;;;12.09;87.25977;957.8103;;;;
2020/01/31 17:01:35;;;;;;;1.4;1;;;;;;;12.07;87.19434;957.7814;;;;
2020/01/31 17:04:00;;;;;;;1.6;1.3;;;;;;;12.08;87.13867;957.8778;;;;
2020/01/31 17:06:25;;;;;;;1.7;1;;;;;;;12.03;87.26855;957.9404;;;;
2020/01/31 17:08:50;;;;;;;1.2;0.8;;;;;;;12.08;86.85156;957.8844;;;;
2020/01/31 17:11:15;;;;;;;1;0.9;;;;;;;12.07;87.14844;957.8566;;;;
2020/01/31 17:13:40;;;;;;;2;0.7;;;;;;;12.04;87.0293;957.8089;;;;
2020/01/31 17:16:05;;;;;;;2.2;1;;;;;;;12.06;86.84766;957.81;;;;
2020/01/31 17:18:30;;;;;;;2;1;;;;;;;12.15;86.14941;957.7595;;;;
2020/01/31 17:20:55;;;;;;;1.1;1;;;;;;;12.11;86.42969;957.7245;;;;
2020/01/31 17:23:20;;;;;;;2.4;0.9;;;;;;;12.15;86.20703;957.7268;;;;
2020/01/31 17:25:46;;;;;;;1.1;0.8;;;;;;;12.12;86.24805;957.7183;;;;
2020/01/31 17:28:11;;;;;;;1.6;0.7;;;;;;;12.12;86.3623;957.7347;;;;
2020/01/31 17:30:36;;;;;;;1.7;1;;;;;;;12.13;86.27148;957.7274;;;;
2020/01/31 17:33:01;;;;;;;1.3;1;;;;;;;12.13;86.19043;957.7952;;;;
2020/01/31 17:35:26;;;;;;;1.6;1.1;;;;;;;12.19;85.82227;957.772;;;;
2020/01/31 17:37:51;;;;;;;1.6;1;;;;;;;12.26;85.37207;957.8094;;;;
2020/01/31 17:40:17;;;;;;;1.3;1.1;;;;;;;12.19;85.78711;957.7606;;;;
2020/01/31 17:42:41;;;;;;;1.8;1.1;;;;;;;12.22;85.58594;957.796;;;;
2020/01/31 17:45:07;;;;;;;2.6;1.2;;;;;;;12.2;85.68457;957.7819;;;;
2020/01/31 17:47:32;;;;;;;1.2;0.9;;;;;;;12.24;85.3457;957.7726;;;;
2020/01/31 17:49:57;;;;;;;1.5;0.9;;;;;;;12.29;85.11523;957.7813;;;;
2020/01/31 17:52:27;;;;;;;1.4;1.1;;;;;;;12.25;85.37207;957.7947;;;;
2020/01/31 17:54:55;;;;;;;2.1;1.2;;;;;;;12.34;84.90234;957.7645;;;;
2020/01/31 18:00:58;;;;;;;2;1.2;;;;;;;12.27;85.10938;957.8186;;;;
2020/01/31 18:02:12;;;;;;;2;1;;;;;;;12.4;84.52148;957.8058;;;;
2020/01/31 18:04:28;;;;;;;1.5;0.9;;;;;;;12.34;84.48633;957.8086;;;;
2020/01/31 18:06:52;;;;;;;1.6;0.9;;;;;;;12.32;84.35742;957.8148;;;;
2020/01/31 18:09:18;;;;;;;1.3;0.8;;;;;;;12.34;84.24414;957.7906;;;;
2020/01/31 18:11:43;;;;;;;1.8;1;;;;;;;12.25;84.83887;957.7816;;;;
2020/01/31 18:14:08;;;;;;;1.6;1.1;;;;;;;12.16;85.39844;957.7954;;;;
2020/01/31 18:16:33;;;;;;;1.2;0.9;;;;;;;12.2;84.95703;957.8259;;;;
2020/01/31 18:18:58;;;;;;;1.3;0.9;;;;;;;12.21;85.0166;957.8769;;;;
2020/01/31 18:21:23;;;;;;;1.7;1;;;;;;;12.19;85.04785;957.8978;;;;
2020/01/31 18:23:48;;;;;;;1.5;1.2;;;;;;;12.2;84.92285;957.9224;;;;
2020/01/31 18:26:13;;;;;;;2;1.1;;;;;;;12.17;85.27539;957.8542;;;;
2020/01/31 18:28:38;;;;;;;1.1;0.7;;;;;;;12.1;85.33008;957.8348;;;;
2020/01/31 18:31:03;;;;;;;3;0.8;;;;;;;12.18;84.86133;957.9338;;;;
2020/01/31 18:33:29;;;;;;;1;0.7;;;;;;;12.19;84.98828;957.87;;;;
2020/01/31 18:35:54;;;;;;;1.3;0.9;;;;;;;12.18;84.81543;957.9092;;;;
2020/01/31 18:38:19;;;;;;;1.6;0.9;;;;;;;12.19;84.65723;957.9101;;;;
2020/01/31 18:40:44;;;;;;;1.4;0.9;;;;;;;12.19;84.76074;957.8798;;;;
2020/01/31 18:43:09;;;;;;;1.6;0.7;;;;;;;12.08;85.26953;957.9219;;;;
2020/01/31 18:45:34;;;;;;;1.2;0.8;;;;;;;12.1;85.05371;957.9394;;;;
2020/01/31 18:47:59;;;;;;;1.6;0.8;;;;;;;12.02;85.42969;957.9498;;;;
2020/01/31 18:50:24;;;;;;;1.2;1;;;;;;;11.98;85.62891;957.9561;;;;
2020/01/31 18:52:50;;;;;;;1.2;0.9;;;;;;;12.03;85.33984;957.9747;;;;
2020/01/31 18:55:15;;;;;;;2.2;0.9;;;;;;;11.98;85.55957;957.9626;;;;
2020/01/31 18:57:41;;;;;;;1.7;0.9;;;;;;;12.09;84.94922;958.0488;;;;
2020/01/31 19:00:15;;;;;;;1.1;1;;;;;;;12.15;84.50977;957.9776;;;;
2020/01/31 19:02:32;;;;;;;1;0.9;;;;;;;12.17;84.38379;958.0217;;;;
2020/01/31 19:04:57;;;;;;;1.2;1.1;;;;;;;12.12;84.31738;958.0189;;;;
2020/01/31 19:07:22;;;;;;;1.4;1.3;;;;;;;12.05;84.70801;957.9755;;;;
2020/01/31 19:09:48;;;;;;;1.8;1.5;;;;;;;12.05;84.48828;958.0033;;;;
2020/01/31 19:12:13;;;;;;;3.2;1.7;;;;;;;11.98;85.05371;958.0361;;;;
2020/01/31 19:19:37;;;;;;;2.2;1.6;;;;;;;11.95;85.14844;958.0259;;;;
2020/01/31 19:21:58;;;;;;;2.1;1.6;;;;;;;11.93;85.08887;958.0273;;;;
2020/01/31 19:24:18;;;;;;;1.8;1.2;;;;;;;12.03;84.59863;957.9608;;;;
2020/01/31 19:26:44;;;;;;;3.1;1.4;;;;;;;11.98;84.71875;957.9618;;;;
2020/01/31 19:29:09;;;;;;;1.8;1.2;;;;;;;11.95;85.12695;957.9917;;;;
2020/01/31 19:31:35;;;;;;;1.3;1.1;;;;;;;11.97;84.7959;957.9911;;;;
2020/01/31 19:34:00;;;;;;;1.8;1.3;;;;;;;11.94;84.91797;958.0121;;;;
2020/01/31 19:36:25;;;;;;;2.6;1.5;;;;;;;11.95;84.97949;957.9598;;;;
2020/01/31 19:38:50;;;;;;;2;1.3;;;;;;;11.92;85.05078;957.9832;;;;
2020/01/31 19:41:16;;;;;;;1.9;1.2;;;;;;;11.92;84.90234;958.0199;;;;
2020/01/31 19:43:41;;;;;;;1.9;1.2;;;;;;;11.99;84.53613;958.0847;;;;
2020/01/31 19:46:06;;;;;;;2.2;0.9;;;;;;;12.09;84.20801;958.0839;;;;
2020/01/31 19:48:31;;;;;;;1.2;1;;;;;;;11.93;84.8584;958.0706;;;;
2020/01/31 19:50:56;;;;;;;1.5;1;;;;;;;11.9;85.07031;958.0253;;;;
2020/01/31 19:53:21;;;;;;;2.4;1.2;;;;;;;11.87;84.98438;958.0813;;;;
2020/01/31 19:55:46;;;;;;;1.2;0.9;;;;;;;11.91;85.0166;958.1049;;;;
2020/01/31 19:58:11;;;;;;;1.4;1;;;;;;;11.88;85.02051;958.1674;;;;
2020/01/31 20:00:36;;;;;;;1;0.9;;;;;;;11.9;84.86328;958.2033;;;;
2020/01/31 20:03:01;;;;;;;1.5;0.9;;;;;;;11.93;84.43262;958.2372;;;;
2020/01/31 20:05:27;;;;;;;1.9;1;;;;;;;11.93;84.77734;958.2061;;;;
2020/01/31 20:07:52;;;;;;;2.2;0.9;;;;;;;11.94;84.69824;958.231;;;;
2020/01/31 20:10:17;;;;;;;1.5;1.2;;;;;;;11.89;85.0459;958.2189;;;;
2020/01/31 20:12:42;;;;;;;1.5;1;;;;;;;11.9;85.12793;958.2703;;;;
2020/01/31 20:15:07;;;;;;;2.4;1;;;;;;;11.87;85.32129;958.2504;;;;
2020/01/31 20:17:32;;;;;;;2.3;1.2;;;;;;;11.91;85.25684;958.2805;;;;
2020/01/31 20:19:58;;;;;;;1.6;1.1;;;;;;;11.89;85.35742;958.2548;;;;
2020/01/31 20:22:23;;;;;;;1.5;1;;;;;;;11.92;85.07422;958.3016;;;;
2020/01/31 20:24:48;;;;;;;2;0.9;;;;;;;11.95;85.01172;958.2914;;;;
2020/01/31 20:27:13;;;;;;;1.3;1;;;;;;;11.97;84.66895;958.3137;;;;
2020/01/31 20:29:39;;;;;;;1.5;1.1;;;;;;;11.98;84.65918;958.1545;;;;
2020/01/31 20:32:04;;;;;;;1.8;1.3;;;;;;;11.94;84.60645;958.1738;;;;
2020/01/31 20:34:29;;;;;;;2.2;1.2;;;;;;;12.02;84.26367;958.1483;;;;
2020/01/31 20:36:54;;;;;;;1.2;1;;;;;;;11.95;84.61914;958.0783;;;;
2020/01/31 20:39:19;;;;;;;2;1.2;;;;;;;11.99;84.1084;958.1439;;;;
2020/01/31 20:41:45;;;;;;;1.4;1.2;;;;;;;12.02;83.58203;958.1581;;;;
2020/01/31 20:44:10;;;;;;;1.5;1.1;;;;;;;12.06;83.56641;958.1498;;;;
2020/01/31 20:46:36;;;;;;;1.7;1.3;;;;;;;12.1;83.00879;958.093;;;;
2020/01/31 20:49:01;;;;;;;1.3;1.2;;;;;;;12.12;82.91016;958.1725;;;;
2020/01/31 20:51:26;;;;;;;1.7;1.3;;;;;;;12.08;82.63477;958.1172;;;;
2020/01/31 20:53:52;;;;;;;2.5;1.2;;;;;;;12.09;82.71875;958.1102;;;;
2020/01/31 20:56:17;;;;;;;1.1;0.9;;;;;;;12.15;82.17578;958.0323;;;;
2020/01/31 20:58:42;;;;;;;1.5;1;;;;;;;12.2;81.41016;958.0465;;;;
2020/01/31 21:01:08;;;;;;;1.2;0.9;;;;;;;12.16;81.48438;958.0438;;;;
2020/01/31 21:03:33;;;;;;;1.6;0.7;;;;;;;12.17;81.52051;958.0903;;;;
2020/01/31 21:05:58;;;;;;;1.3;0.8;;;;;;;12.12;81.57031;958.1373;;;;
2020/01/31 21:08:24;;;;;;;1.1;0.8;;;;;;;12.07;82.1377;958.1269;;;;
2020/01/31 21:10:49;;;;;;;0.7;0.7;;;;;;;12.08;81.97754;958.1077;;;;
2020/01/31 21:13:14;;;;;;;0.9;0.8;;;;;;;12.09;81.60938;958.0807;;;;
2020/01/31 21:15:39;;;;;;;1.3;0.8;;;;;;;12.08;81.55078;958.1669;;;;
2020/01/31 21:18:04;;;;;;;1.5;0.8;;;;;;;12.06;81.64941;958.1588;;;;
2020/01/31 21:20:29;;;;;;;1.5;1;;;;;;;11.97;82.18652;958.0811;;;;
2020/01/31 21:22:55;;;;;;;1.1;0.9;;;;;;;11.94;82.53906;958.0807;;;;
2020/01/31 21:25:20;;;;;;;0.8;0.8;;;;;;;11.93;82.82617;958.0975;;;;
2020/01/31 21:27:45;;;;;;;1.5;0.9;;;;;;;11.98;83.23926;958.1014;;;;
2020/01/31 21:30:10;;;;;;;0.8;0.8;;;;;;;11.95;83.34961;958.0783;;;;
2020/01/31 21:32:36;;;;;;;1;0.6;;;;;;;12.03;83.04102;958.085;;;;
2020/01/31 21:35:01;;;;;;;1;0.9;;;;;;;12.05;83.18359;958.0653;;;;
2020/01/31 21:37:26;;;;;;;1.5;0.8;;;;;;;11.95;83.65918;958.0913;;;;
2020/01/31 21:39:51;;;;;;;1.5;0.9;;;;;;;11.96;83.6875;958.0186;;;;
2020/01/31 21:42:16;;;;;;;1.7;0.9;;;;;;;11.94;83.76367;957.9394;;;;
2020/01/31 21:44:42;;;;;;;1.1;0.8;;;;;;;11.91;84.06836;958.0535;;;;
2020/01/31 21:47:07;;;;;;;1.5;0.7;;;;;;;11.95;83.89063;957.9492;;;;
2020/01/31 21:49:32;;;;;;;2;0.9;;;;;;;11.94;83.94824;957.9868;;;;
2020/01/31 21:51:57;;;;;;;1.4;1;;;;;;;11.93;83.86328;957.9979;;;;
2020/01/31 21:54:22;;;;;;;1.8;0.8;;;;;;;11.88;84.09961;958.0033;;;;
2020/01/31 21:56:47;;;;;;;1.3;1;;;;;;;11.84;84.32129;957.9623;;;;
2020/01/31 21:59:13;;;;;;;1.2;0.9;;;;;;;11.81;84.60254;957.9644;;;;
2020/01/31 22:01:38;;;;;;;1;0.9;;;;;;;11.81;84.47754;957.9587;;;;
2020/01/31 22:04:03;;;;;;;1;0.9;;;;;;;11.82;84.67383;957.9443;;;;
2020/01/31 22:06:28;;;;;;;1.1;1;;;;;;;11.85;84.50781;957.8747;;;;
2020/01/31 22:08:53;;;;;;;1.7;1;;;;;;;11.87;84.36133;957.7629;;;;
2020/01/31 22:11:18;;;;;;;1.7;1.1;;;;;;;11.81;84.60449;957.7659;;;;
2020/01/31 22:13:44;;;;;;;2.1;0.9;;;;;;;11.81;84.07422;957.7227;;;;
2020/01/31 22:16:09;;;;;;;1.2;0.9;;;;;;;11.82;83.80957;957.7009;;;;
2020/01/31 22:18:34;;;;;;;1.1;0.9;;;;;;;11.9;83.46582;957.6546;;;;
2020/01/31 22:21:00;;;;;;;1.1;0.7;;;;;;;11.82;83.44043;957.5589;;;;
2020/01/31 22:23:25;;;;;;;0.9;0.7;;;;;;;11.78;83.62793;957.5256;;;;
2020/01/31 22:25:51;;;;;;;0.8;0.7;;;;;;;11.91;83.38867;957.6067;;;;
2020/01/31 22:28:15;;;;;;;1.5;0.8;;;;;;;11.89;83.20996;957.5722;;;;
2020/01/31 22:30:40;;;;;;;1.7;0.7;;;;;;;11.72;83.99902;957.5804;;;;
2020/01/31 22:33:06;;;;;;;1.1;0.8;;;;;;;11.76;83.91309;957.6261;;;;
2020/01/31 22:35:31;;;;;;;0.7;0.7;;;;;;;11.7;84.18945;957.5853;;;;
2020/01/31 22:37:56;;;;;;;0.7;0.5;;;;;;;11.71;84.16797;957.6099;;;;
2020/01/31 22:40:21;;;;;;;1.6;1;;;;;;;11.76;83.98242;957.6163;;;;
2020/01/31 22:42:46;;;;;;;1.2;0.7;;;;;;;11.65;84.27344;957.6312;;;;
2020/01/31 22:45:12;;;;;;;1.3;0.9;;;;;;;11.56;84.73828;957.5583;;;;
2020/01/31 22:47:37;;;;;;;1;0.8;;;;;;;11.51;84.8125;957.543;;;;
2020/01/31 22:50:02;;;;;;;1.4;0.8;;;;;;;11.57;84.75391;957.4343;;;;
2020/01/31 22:52:28;;;;;;;1.6;0.9;;;;;;;11.29;85.77148;957.4261;;;;
2020/01/31 22:54:53;;;;;;;2.5;0.9;;;;;;;11.36;85.55469;957.3967;;;;
2020/01/31 22:57:18;;;;;;;1.6;0.9;;;;;;;11.22;86.06836;957.4073;;;;
2020/01/31 22:59:43;;;;;;;1.5;0.8;;;;;;;11.29;85.7832;957.3649;;;;
2020/01/31 23:02:09;;;;;;;1.3;0.8;;;;;;;11.26;85.71973;957.4143;;;;
2020/01/31 23:04:34;;;;;;;0.9;0.8;;;;;;;11.2;85.70605;957.4339;;;;
2020/01/31 23:06:59;;;;;;;1.1;0.8;;;;;;;11.19;85.76172;957.4706;;;;
2020/01/31 23:09:27;;;;;;;1.4;0.7;;;;;;;11.19;85.6123;957.4217;;;;
2020/01/31 23:11:50;;;;;;;0.8;0.8;;;;;;;11.28;85.17969;957.4294;;;;
2020/01/31 23:14:16;;;;;;;1.6;0.7;;;;;;;11.12;85.87598;957.4564;;;;
2020/01/31 23:16:41;;;;;;;1;0.7;;;;;;;11.14;85.87988;957.4462;;;;
2020/01/31 23:19:07;;;;;;;0.8;0.7;;;;;;;11.13;85.75098;957.4592;;;;
2020/01/31 23:21:45;;;;;;;1.2;0.8;;;;;;;11.08;85.99414;957.4731;;;;
2020/01/31 23:24:10;;;;;;;1.2;0.8;;;;;;;11.03;86.0293;957.465;;;;
2020/01/31 23:26:35;;;;;;;1.8;0.7;;;;;;;11.08;85.77539;957.4706;;;;
2020/01/31 23:29:00;;;;;;;1;0.7;;;;;;;10.99;85.82617;957.4531;;;;
2020/01/31 23:31:31;;;;;;;1;0.8;;;;;;;11.12;84.9541;957.56;;;;
2020/01/31 23:33:56;;;;;;;1.1;0.9;;;;;;;11.25;84.40234;957.6067;;;;
2020/01/31 23:36:21;;;;;;;0.6;0.6;;;;;;;11.13;85.10547;957.5684;;;;
2020/01/31 23:38:46;;;;;;;1;0.8;;;;;;;11.04;84.97266;957.4996;;;;
2020/01/31 23:44:43;;;;;;;1;0.8;;;;;;;11.08;84.61133;957.4324;;;;
2020/01/31 23:47:08;;;;;;;1.4;0.8;;;;;;;11.14;83.93164;957.4838;;;;
2020/01/31 23:49:33;;;;;;;0.9;0.7;;;;;;;11.07;83.2041;957.3915;;;;
2020/01/31 23:51:58;;;;;;;0.8;0.6;;;;;;;11.03;83.12793;957.403;;;;
2020/01/31 23:54:23;;;;;;;1.3;0.6;;;;;;;10.96;83.28516;957.2709;;;;
2020/01/31 23:56:48;;;;;;;0.8;0.7;;;;;;;10.88;83.46484;957.2469;;;;
2020/01/31 23:59:13;;;;;;;0.5;0.5;;;;;;;10.96;82.57227;957.2497;;;;
